Time;durP1;ratioP1;P1;durP2;ratioP2;P2;SDS_P1;SDS_P2;PMS_P1;PMS_P2;Temp;Humidity;BMP_temperature;BMP_pressure;BME280_temperature;BME280_humidity;BME280_pressure;Samples;Min_cycle;Max_cycle;Signal;HPM_P1;HPM_P2
2022/06/21 00:00:20;;;;;;;1.60;1.50;;;;;;;12.07;99.32;100237.66;4983476;28;20476;-46
2022/06/21 00:02:49;;;;;;;0.40;0.20;;;;;;;12.30;98.25;100227.94;4985414;28;20461;-46
2022/06/21 00:05:26;;;;;;;0.40;0.20;;;;;;;11.86;100.00;100225.94;4989741;28;20498;-47
2022/06/21 00:07:56;;;;;;;0.40;0.20;;;;;;;11.62;100.00;100225.88;4989340;28;20515;-46
2022/06/21 00:10:23;;;;;;;0.40;0.20;;;;;;;11.90;100.00;100218.69;5002982;28;20504;-45
2022/06/21 00:12:50;;;;;;;0.40;0.20;;;;;;;11.94;100.00;100217.69;4994976;28;20512;-45
2022/06/21 00:15:16;;;;;;;0.40;0.20;;;;;;;12.15;100.00;100222.25;4983957;28;20819;-46
2022/06/21 00:17:48;;;;;;;1.37;1.27;;;;;;;11.97;100.00;100228.25;4989682;28;20963;-46
2022/06/21 00:20:20;;;;;;;0.40;0.20;;;;;;;11.99;100.00;100229.03;4984432;28;20449;-47
2022/06/21 00:22:49;;;;;;;0.40;0.20;;;;;;;11.98;100.00;100218.44;4983291;28;20454;-46
2022/06/21 00:25:24;;;;;;;0.40;0.20;;;;;;;11.87;100.00;100221.47;4986372;28;20497;-48
2022/06/21 00:27:53;;;;;;;0.40;0.20;;;;;;;11.74;100.00;100218.34;4989552;28;20453;-45
2022/06/21 00:30:20;;;;;;;0.40;0.20;;;;;;;12.02;100.00;100218.28;4987000;28;20511;-46
2022/06/21 00:32:51;;;;;;;0.40;0.20;;;;;;;11.99;100.00;100210.41;4982652;28;20476;-46
2022/06/21 00:35:21;;;;;;;0.40;0.20;;;;;;;11.69;100.00;100209.66;4985006;28;20540;-45
2022/06/21 00:37:49;;;;;;;0.37;0.20;;;;;;;11.93;100.00;100215.97;4989395;28;20473;-45
2022/06/21 00:40:28;;;;;;;0.40;0.20;;;;;;;11.88;100.00;100227.69;4988621;28;20453;-46
2022/06/21 00:43:03;;;;;;;0.60;0.60;;;;;;;11.78;100.00;100227.09;4976179;28;20524;-46
2022/06/21 00:45:37;;;;;;;0.40;0.20;;;;;;;11.92;100.00;100231.97;4988801;28;20558;-46
2022/06/21 00:48:27;;;;;;;0.40;0.20;;;;;;;11.72;100.00;100232.63;4986332;28;20457;-45
2022/06/21 00:51:00;;;;;;;0.40;0.20;;;;;;;11.76;100.00;100237.78;4976099;28;20924;-46
2022/06/21 00:53:31;;;;;;;0.40;0.20;;;;;;;11.68;99.95;100239.88;4988788;28;20457;-45
2022/06/21 00:56:05;;;;;;;0.33;0.20;;;;;;;11.60;100.00;100236.56;4984031;28;20477;-46
2022/06/21 00:58:32;;;;;;;0.33;0.20;;;;;;;11.65;100.00;100225.75;4992403;28;20967;-45
2022/06/21 01:01:22;;;;;;;0.40;0.20;;;;;;;11.53;100.00;100222.63;4985298;28;20523;-45
2022/06/21 01:04:11;;;;;;;0.40;0.20;;;;;;;11.60;100.00;100227.72;4980954;28;20493;-47
2022/06/21 01:06:44;;;;;;;0.40;0.20;;;;;;;11.40;99.92;100228.41;4981931;28;20481;-45
2022/06/21 01:09:16;;;;;;;0.40;0.20;;;;;;;11.38;100.00;100233.78;4986855;28;20527;-45
2022/06/21 01:11:48;;;;;;;0.40;0.20;;;;;;;11.37;99.41;100221.38;5009944;28;20504;-46
2022/06/21 01:14:18;;;;;;;0.40;0.20;;;;;;;11.26;99.25;100224.41;4983428;28;20450;-46
2022/06/21 01:16:45;;;;;;;0.40;0.20;;;;;;;11.07;99.71;100223.22;4988668;28;20501;-46
2022/06/21 01:19:40;;;;;;;0.40;0.20;;;;;;;10.93;99.71;100215.69;4982788;28;20473;-46
2022/06/21 01:22:26;;;;;;;0.40;0.20;;;;;;;10.93;100.00;100201.50;4966335;28;20450;-46
2022/06/21 01:25:08;;;;;;;0.40;0.20;;;;;;;10.90;99.32;100204.28;4989709;28;20526;-46
2022/06/21 01:27:36;;;;;;;0.40;0.20;;;;;;;10.85;99.34;100212.41;4990049;28;20453;-45
2022/06/21 01:30:04;;;;;;;0.40;0.20;;;;;;;10.98;100.00;100216.44;4985997;28;20501;-46
2022/06/21 01:32:31;;;;;;;0.30;0.20;;;;;;;11.09;100.00;100217.84;4988262;28;20511;-46
2022/06/21 01:34:59;;;;;;;0.40;0.20;;;;;;;10.74;99.94;100217.19;4984014;28;20469;-46
2022/06/21 01:37:30;;;;;;;0.40;0.20;;;;;;;10.68;100.00;100222.66;4991836;28;20453;-47
2022/06/21 01:40:25;;;;;;;0.40;0.20;;;;;;;10.56;100.00;100215.09;4984937;28;20503;-46
2022/06/21 01:42:57;;;;;;;0.30;0.20;;;;;;;10.59;100.00;100225.63;4987852;28;20446;-45
2022/06/21 01:45:34;;;;;;;0.40;0.20;;;;;;;10.59;100.00;100220.31;4988803;28;20501;-46
2022/06/21 01:48:09;;;;;;;0.30;0.20;;;;;;;10.76;100.00;100222.44;4985265;28;20883;-46
2022/06/21 01:50:38;;;;;;;0.40;0.20;;;;;;;10.60;100.00;100227.34;4987808;28;20879;-46
2022/06/21 01:53:08;;;;;;;0.30;0.20;;;;;;;10.61;100.00;100226.44;4985558;28;20454;-46
2022/06/21 01:55:44;;;;;;;0.30;0.20;;;;;;;10.66;100.00;100230.69;4980900;28;20892;-46
2022/06/21 01:58:18;;;;;;;0.30;0.20;;;;;;;10.55;100.00;100224.84;4981437;28;20451;-47
2022/06/21 02:01:19;;;;;;;0.30;0.20;;;;;;;10.62;100.00;100226.38;4975051;28;20504;-45
2022/06/21 02:03:50;;;;;;;0.40;0.20;;;;;;;10.57;100.00;100224.78;4986568;28;20450;-46
2022/06/21 02:06:17;;;;;;;0.30;0.20;;;;;;;10.37;100.00;100222.72;4987059;28;20470;-47
2022/06/21 02:09:07;;;;;;;0.30;0.20;;;;;;;10.22;100.00;100229.34;4993859;28;20460;-46
2022/06/21 02:11:42;;;;;;;0.30;0.20;;;;;;;10.50;100.00;100224.09;5002502;28;20454;-45
2022/06/21 02:14:29;;;;;;;0.30;0.20;;;;;;;10.60;100.00;100220.25;4988725;28;20990;-47
2022/06/21 02:17:11;;;;;;;0.30;0.20;;;;;;;10.45;100.00;100215.41;4994257;28;20819;-46
2022/06/21 02:20:16;;;;;;;0.40;0.20;;;;;;;10.34;100.00;100213.03;4980891;28;20449;-47
2022/06/21 02:22:43;;;;;;;0.40;0.20;;;;;;;10.53;100.00;100212.50;4980508;28;20450;-46
2022/06/21 02:25:17;;;;;;;0.30;0.20;;;;;;;10.48;100.00;100203.81;4985746;28;20517;-48
2022/06/21 02:27:44;;;;;;;0.30;0.20;;;;;;;10.58;99.40;100198.16;4987133;28;20459;-48
2022/06/21 02:30:18;;;;;;;0.30;0.20;;;;;;;10.63;99.05;100206.00;4983514;28;20453;-48
2022/06/21 02:32:45;;;;;;;0.30;0.20;;;;;;;10.43;98.63;100200.41;4980311;28;20936;-48
2022/06/21 02:35:30;;;;;;;0.30;0.20;;;;;;;10.13;100.00;100195.00;4982963;28;20474;-49
2022/06/21 02:38:01;;;;;;;0.30;0.20;;;;;;;10.15;100.00;100203.84;4987522;28;20510;-48
2022/06/21 02:40:33;;;;;;;0.30;0.20;;;;;;;10.20;100.00;100196.59;4986863;28;20445;-48
2022/06/21 02:43:05;;;;;;;0.40;0.20;;;;;;;10.02;100.00;100199.78;4974750;28;20497;-48
2022/06/21 02:45:39;;;;;;;0.30;0.20;;;;;;;10.22;100.00;100193.94;4986571;28;20497;-49
2022/06/21 02:48:12;;;;;;;0.30;0.20;;;;;;;10.21;100.00;100198.38;4983389;28;20504;-49
2022/06/21 02:50:48;;;;;;;0.30;0.20;;;;;;;10.46;99.99;100198.53;4979820;28;20477;-49
2022/06/21 02:53:25;;;;;;;0.30;0.20;;;;;;;10.27;100.00;100202.63;4993113;28;20930;-48
2022/06/21 02:56:02;;;;;;;0.30;0.20;;;;;;;10.21;100.00;100201.03;4973616;28;20470;-48
2022/06/21 02:58:38;;;;;;;0.30;0.20;;;;;;;9.82;100.00;100204.75;4986784;28;20670;-49
2022/06/21 03:01:14;;;;;;;0.30;0.20;;;;;;;9.85;100.00;100207.31;4983564;28;20504;-48
2022/06/21 03:03:41;;;;;;;0.30;0.20;;;;;;;10.09;100.00;100202.22;4979790;28;20453;-48
2022/06/21 03:06:11;;;;;;;0.30;0.20;;;;;;;10.30;100.00;100208.75;4981838;28;20494;-49
2022/06/21 03:08:46;;;;;;;0.30;0.20;;;;;;;10.24;100.00;100205.38;4986867;28;20450;-48
2022/06/21 03:11:14;;;;;;;0.30;0.20;;;;;;;10.35;100.00;100203.28;5004866;28;20498;-48
2022/06/21 03:13:41;;;;;;;0.30;0.20;;;;;;;10.10;100.00;100189.78;4980555;28;20463;-48
2022/06/21 03:16:13;;;;;;;0.30;0.20;;;;;;;9.90;100.00;100194.81;4987303;28;20469;-48
2022/06/21 03:18:48;;;;;;;0.30;0.20;;;;;;;9.98;100.00;100187.47;4984900;28;20970;-49
2022/06/21 03:21:16;;;;;;;0.30;0.20;;;;;;;9.80;100.00;100181.78;4986443;28;20452;-48
2022/06/21 03:23:44;;;;;;;0.30;0.20;;;;;;;9.83;100.00;100171.97;4982866;28;21004;-48
2022/06/21 03:26:13;;;;;;;0.30;0.20;;;;;;;9.96;100.00;100179.56;4979564;28;20526;-49
2022/06/21 03:28:43;;;;;;;0.33;0.20;;;;;;;9.92;100.00;100177.91;4985453;28;20541;-49
2022/06/21 03:31:26;;;;;;;0.30;0.20;;;;;;;9.81;100.00;100177.34;4990462;28;20478;-49
2022/06/21 03:33:55;;;;;;;0.30;0.20;;;;;;;10.03;100.00;100172.31;4990351;28;20448;-49
2022/06/21 03:36:26;;;;;;;0.30;0.20;;;;;;;9.98;100.00;100166.25;4977696;28;20473;-50
2022/06/21 03:39:10;;;;;;;0.30;0.20;;;;;;;9.91;100.00;100164.69;4990298;28;20499;-49
2022/06/21 03:41:45;;;;;;;0.30;0.20;;;;;;;10.05;100.00;100170.47;5002535;28;20449;-49
2022/06/21 03:44:26;;;;;;;0.30;0.20;;;;;;;9.97;100.00;100169.81;4983432;28;20824;-51
2022/06/21 03:47:19;;;;;;;0.30;0.20;;;;;;;9.89;100.00;100155.91;4983463;28;20454;-48
2022/06/21 03:49:53;;;;;;;0.30;0.20;;;;;;;9.95;100.00;100155.72;4985708;28;20456;-49
2022/06/21 03:52:41;;;;;;;0.30;0.20;;;;;;;10.10;100.00;100148.16;4989846;28;20529;-49
2022/06/21 03:55:30;;;;;;;0.30;0.20;;;;;;;10.06;100.00;100153.63;5004638;28;20462;-49
2022/06/21 03:57:56;;;;;;;0.30;0.20;;;;;;;10.28;100.00;100141.50;4988544;28;20445;-48
2022/06/21 04:00:27;;;;;;;0.30;0.20;;;;;;;10.39;100.00;100142.03;4983393;28;20457;-49
2022/06/21 04:03:04;;;;;;;0.30;0.20;;;;;;;10.55;100.00;100138.91;4984112;28;20548;-49
2022/06/21 04:05:40;;;;;;;0.30;0.20;;;;;;;10.49;100.00;100147.94;4976447;28;20552;-49
2022/06/21 04:08:15;;;;;;;0.30;0.20;;;;;;;10.63;100.00;100152.84;4989999;28;20445;-48
2022/06/21 04:10:45;;;;;;;0.30;0.20;;;;;;;10.71;100.00;100145.50;5000346;28;20455;-48
2022/06/21 04:13:37;;;;;;;0.30;0.20;;;;;;;10.82;100.00;100151.31;4988732;28;20453;-49
2022/06/21 04:16:18;;;;;;;0.30;0.20;;;;;;;10.90;100.00;100151.09;4989585;28;20512;-49
2022/06/21 04:18:50;;;;;;;0.30;0.20;;;;;;;11.06;100.00;100143.47;4983996;28;20459;-48
2022/06/21 04:21:35;;;;;;;0.30;0.20;;;;;;;11.26;100.00;100141.03;4989311;28;20446;-48
2022/06/21 04:24:21;;;;;;;0.30;0.20;;;;;;;11.30;100.00;100147.13;4988864;28;20449;-48
2022/06/21 04:26:56;;;;;;;0.30;0.20;;;;;;;11.38;100.00;100139.75;4976252;28;20450;-48
2022/06/21 04:29:32;;;;;;;0.30;0.20;;;;;;;11.74;99.46;100138.44;4989603;28;20450;-49
2022/06/21 04:32:27;;;;;;;0.30;0.20;;;;;;;12.93;92.99;100141.94;4987711;28;20449;-49
2022/06/21 04:35:10;;;;;;;0.40;0.20;;;;;;;13.40;91.68;100136.44;4956279;28;20462;-49
2022/06/21 04:37:37;;;;;;;0.40;0.20;;;;;;;13.75;88.65;100145.59;4989549;28;20450;-49
2022/06/21 04:40:11;;;;;;;0.80;0.80;;;;;;;13.82;88.53;100141.72;4987100;28;20798;-48
2022/06/21 04:42:41;;;;;;;0.30;0.20;;;;;;;14.30;87.01;100144.94;4982516;28;20452;-49
2022/06/21 04:45:19;;;;;;;0.40;0.20;;;;;;;14.71;86.32;100143.88;4982564;28;20494;-50
2022/06/21 04:48:13;;;;;;;0.40;0.20;;;;;;;15.07;84.54;100143.88;4976366;28;20450;-49
2022/06/21 04:50:44;;;;;;;0.40;0.20;;;;;;;15.09;84.77;100142.03;4988994;28;20512;-50
2022/06/21 04:53:17;;;;;;;0.40;0.20;;;;;;;15.27;84.33;100142.03;4988052;28;20508;-49
2022/06/21 04:56:01;;;;;;;0.40;0.20;;;;;;;15.54;83.43;100140.63;4982483;28;20500;-49
2022/06/21 04:58:29;;;;;;;0.40;0.20;;;;;;;15.64;82.41;100141.06;4982112;28;20505;-50
2022/06/21 05:00:56;;;;;;;0.40;0.20;;;;;;;15.61;82.41;100142.06;4995291;28;20942;-50
2022/06/21 05:03:38;;;;;;;0.40;0.20;;;;;;;15.37;84.49;100135.28;4981928;28;20545;-49
2022/06/21 05:06:05;;;;;;;0.40;0.20;;;;;;;15.57;84.02;100131.56;4983978;28;20494;-49
2022/06/21 05:08:32;;;;;;;0.40;0.30;;;;;;;15.85;83.42;100141.75;4988512;28;20517;-49
2022/06/21 05:11:01;;;;;;;0.40;0.20;;;;;;;16.25;82.15;100143.16;4992159;28;20481;-50
2022/06/21 05:13:34;;;;;;;0.40;0.20;;;;;;;16.38;80.84;100152.28;4982768;28;20501;-50
2022/06/21 05:16:13;;;;;;;0.40;0.20;;;;;;;16.73;79.42;100157.56;4988182;28;20465;-49
2022/06/21 05:18:45;;;;;;;0.40;0.20;;;;;;;16.68;79.63;100155.09;4983113;28;20450;-50
2022/06/21 05:21:33;;;;;;;0.40;0.20;;;;;;;16.75;80.15;100159.19;4988527;28;20445;-50
2022/06/21 05:24:01;;;;;;;0.40;0.20;;;;;;;17.07;79.22;100160.03;4986995;28;20871;-49
2022/06/21 05:26:37;;;;;;;0.40;0.20;;;;;;;17.39;77.40;100160.00;4981234;28;20543;-50
2022/06/21 05:29:36;;;;;;;0.40;0.20;;;;;;;17.59;77.09;100158.81;4981573;28;20928;-50
2022/06/21 05:32:05;;;;;;;0.40;0.20;;;;;;;17.26;77.42;100157.16;4981799;28;20878;-50
2022/06/21 05:34:38;;;;;;;0.40;0.20;;;;;;;16.91;79.20;100163.69;4987855;28;20450;-49
2022/06/21 05:37:17;;;;;;;0.40;0.20;;;;;;;17.41;76.68;100163.47;4987716;28;20446;-50
2022/06/21 05:39:48;;;;;;;0.40;0.20;;;;;;;16.98;77.58;100159.69;4975013;28;20481;-51
2022/06/21 05:42:18;;;;;;;0.40;0.20;;;;;;;17.70;74.94;100148.34;4990261;28;20445;-50
2022/06/21 05:44:57;;;;;;;0.40;0.20;;;;;;;17.64;75.70;100141.44;4985143;28;20521;-50
2022/06/21 05:47:30;;;;;;;0.40;0.20;;;;;;;17.60;76.77;100144.44;4987836;28;20481;-50
2022/06/21 05:49:58;;;;;;;0.40;0.20;;;;;;;17.87;76.52;100141.94;4987544;28;20450;-49
2022/06/21 05:52:30;;;;;;;0.40;0.20;;;;;;;18.21;76.89;100140.69;4982879;28;20461;-50
2022/06/21 05:55:03;;;;;;;1.17;1.17;;;;;;;18.02;77.39;100133.78;4981524;28;20517;-51
2022/06/21 05:57:52;;;;;;;0.40;0.20;;;;;;;18.59;75.40;100141.81;4974696;28;20460;-50
2022/06/21 06:00:30;;;;;;;0.40;0.20;;;;;;;18.37;76.53;100138.78;4987810;28;20458;-50
2022/06/21 06:03:19;;;;;;;0.97;0.97;;;;;;;18.74;76.35;100131.94;4986469;28;20449;-50
2022/06/21 06:05:48;;;;;;;0.40;0.20;;;;;;;18.92;75.61;100135.28;4985725;28;20526;-50
2022/06/21 06:08:30;;;;;;;0.40;0.20;;;;;;;19.06;75.86;100143.31;4987360;28;20500;-50
2022/06/21 06:11:00;;;;;;;0.40;0.20;;;;;;;19.05;75.54;100146.97;5002209;28;20507;-50
2022/06/21 06:13:34;;;;;;;0.40;0.20;;;;;;;19.31;74.55;100164.09;4985026;28;20469;-50
2022/06/21 06:16:24;;;;;;;0.40;0.20;;;;;;;19.10;75.26;100155.59;4980895;28;20549;-50
2022/06/21 06:19:18;;;;;;;0.40;0.20;;;;;;;19.52;75.50;100164.50;4981974;28;20520;-50
2022/06/21 06:21:50;;;;;;;0.40;0.20;;;;;;;19.55;75.35;100175.09;4974542;28;20512;-49
2022/06/21 06:24:28;;;;;;;0.40;0.20;;;;;;;19.36;75.91;100166.50;4987398;28;20453;-49
2022/06/21 06:27:00;;;;;;;0.40;0.20;;;;;;;19.19;75.91;100159.53;4983494;28;20489;-49
2022/06/21 06:29:33;;;;;;;0.40;0.20;;;;;;;19.27;75.51;100154.47;4980417;28;20481;-49
2022/06/21 06:32:18;;;;;;;0.40;0.20;;;;;;;19.50;75.33;100156.50;4982310;28;20455;-50
2022/06/21 06:34:52;;;;;;;0.40;0.20;;;;;;;19.53;75.49;100153.59;4973980;28;20475;-50
2022/06/21 06:37:42;;;;;;;0.40;0.20;;;;;;;19.69;75.23;100163.38;4987059;28;20507;-50
2022/06/21 06:40:25;;;;;;;0.40;0.20;;;;;;;19.84;74.50;100170.41;4985675;28;20481;-50
2022/06/21 06:43:00;;;;;;;0.40;0.30;;;;;;;20.01;74.11;100175.53;4973991;28;20497;-50
2022/06/21 06:45:32;;;;;;;0.40;0.20;;;;;;;20.10;73.38;100177.56;4978477;28;20529;-50
2022/06/21 06:48:03;;;;;;;0.40;0.20;;;;;;;20.52;72.41;100180.06;4983793;28;20461;-49
2022/06/21 06:50:36;;;;;;;0.40;0.20;;;;;;;20.33;72.73;100167.84;4986649;28;20505;-49
2022/06/21 06:53:05;;;;;;;0.40;0.20;;;;;;;20.68;72.04;100178.84;4985261;28;20456;-49
2022/06/21 06:55:57;;;;;;;0.40;0.20;;;;;;;20.66;72.10;100183.50;4980925;28;20839;-50
2022/06/21 06:58:38;;;;;;;0.40;0.20;;;;;;;20.80;72.46;100197.84;4989657;28;20461;-49
2022/06/21 07:01:12;;;;;;;0.40;0.20;;;;;;;20.59;72.50;100186.78;4983927;28;20927;-49
2022/06/21 07:03:50;;;;;;;0.40;0.20;;;;;;;20.81;71.74;100194.16;4979537;28;20532;-50
2022/06/21 07:06:38;;;;;;;3.70;1.30;;;;;;;20.89;72.31;100198.06;4979801;28;20493;-49
2022/06/21 07:09:08;;;;;;;0.40;0.20;;;;;;;21.32;71.42;100213.84;4984281;28;20500;-48
2022/06/21 07:11:51;;;;;;;0.40;0.20;;;;;;;21.78;69.03;100199.53;4991694;28;20519;-50
2022/06/21 07:14:24;;;;;;;0.40;0.20;;;;;;;21.64;70.40;100206.00;4993033;28;20453;-49
2022/06/21 07:16:55;;;;;;;0.40;0.20;;;;;;;21.59;69.91;100195.53;4992847;28;20492;-49
2022/06/21 07:19:22;;;;;;;0.40;0.20;;;;;;;21.26;70.46;100188.13;4979615;28;20446;-50
2022/06/21 07:21:49;;;;;;;0.40;0.20;;;;;;;21.51;69.87;100170.03;4985510;28;20494;-50
2022/06/21 07:24:19;;;;;;;0.40;0.30;;;;;;;21.26;70.50;100163.81;4986598;28;20450;-51
2022/06/21 07:27:00;;;;;;;0.40;0.20;;;;;;;21.59;69.82;100168.50;4981416;28;20528;-50
2022/06/21 07:29:39;;;;;;;0.40;0.20;;;;;;;21.36;70.20;100172.06;4979443;28;20445;-51
2022/06/21 07:32:13;;;;;;;0.40;0.20;;;;;;;21.96;69.02;100154.84;4980601;28;20512;-50
2022/06/21 07:34:56;;;;;;;0.40;0.20;;;;;;;22.27;66.54;100142.47;4979892;28;20482;-50
2022/06/21 07:37:37;;;;;;;0.40;0.20;;;;;;;21.81;67.13;100128.97;4979547;28;20442;-50
2022/06/21 07:40:28;;;;;;;0.40;0.20;;;;;;;21.70;68.45;100129.81;4989886;28;20939;-50
2022/06/21 07:43:11;;;;;;;0.40;0.20;;;;;;;21.61;68.36;100125.09;4973253;28;20991;-50
2022/06/21 07:45:52;;;;;;;0.40;0.20;;;;;;;20.98;70.18;100097.41;4985906;28;20486;-49
2022/06/21 07:48:33;;;;;;;0.40;0.20;;;;;;;20.88;71.10;100069.31;4984831;28;20445;-50
2022/06/21 07:51:09;;;;;;;0.40;0.20;;;;;;;20.72;71.75;100025.53;4985242;28;20447;-49
2022/06/21 07:53:40;;;;;;;0.40;0.20;;;;;;;20.71;72.03;100002.19;4986067;28;20456;-49
2022/06/21 07:56:10;;;;;;;0.40;0.20;;;;;;;21.08;71.42;99950.72;4982275;28;20941;-49
2022/06/21 07:58:53;;;;;;;0.40;0.20;;;;;;;20.70;71.26;99903.22;4979390;28;20523;-49
2022/06/21 08:07:24;;;;;;;0.40;0.20;;;;;;;20.47;72.33;99879.78;4984905;28;20490;-50
2022/06/21 08:09:59;;;;;;;0.40;0.20;;;;;;;20.54;71.33;99867.53;4991258;28;20931;-49
2022/06/21 08:12:25;;;;;;;0.40;0.20;;;;;;;20.63;70.58;99856.91;4996447;28;20473;-51
2022/06/21 08:14:54;;;;;;;0.40;0.20;;;;;;;20.07;71.20;99874.66;4990672;28;20521;-49
2022/06/21 08:17:38;;;;;;;0.40;0.20;;;;;;;20.75;70.02;99936.13;4987421;28;20449;-50
2022/06/21 08:20:05;;;;;;;0.40;0.20;;;;;;;20.96;68.98;99993.06;4976623;28;20470;-49
2022/06/21 08:22:40;;;;;;;0.40;0.20;;;;;;;20.66;67.94;100007.91;4989353;28;20803;-50
2022/06/21 08:25:15;;;;;;;0.40;0.20;;;;;;;20.34;69.40;100001.31;4984929;28;20523;-50
2022/06/21 08:27:45;;;;;;;0.40;0.20;;;;;;;20.44;68.58;100013.22;4982806;28;20520;-50
2022/06/21 08:30:16;;;;;;;0.40;0.20;;;;;;;20.33;67.09;100008.56;4986028;28;20446;-51
2022/06/21 08:33:00;;;;;;;0.40;0.20;;;;;;;20.14;66.46;100002.75;4989223;28;20489;-50
2022/06/21 08:35:33;;;;;;;0.40;0.20;;;;;;;20.17;66.58;100021.47;4989084;28;20537;-50
2022/06/21 08:38:17;;;;;;;0.40;0.20;;;;;;;20.40;66.71;100041.34;4976304;28;20474;-50
2022/06/21 08:40:53;;;;;;;0.40;0.20;;;;;;;19.95;68.41;100048.25;4989183;28;20451;-50
2022/06/21 08:43:43;;;;;;;0.40;0.20;;;;;;;20.10;67.80;100055.25;4987213;28;20445;-49
2022/06/21 08:46:41;;;;;;;0.40;0.20;;;;;;;20.13;66.75;100055.03;4976311;28;20521;-50
2022/06/21 08:49:32;;;;;;;0.40;0.20;;;;;;;20.25;67.23;100059.53;4989466;28;20520;-50
2022/06/21 08:52:04;;;;;;;0.40;0.20;;;;;;;20.40;66.56;100047.63;4988943;28;20953;-50
2022/06/21 08:54:43;;;;;;;0.40;0.20;;;;;;;20.23;66.81;100066.88;4986120;28;20461;-50
2022/06/21 08:57:33;;;;;;;0.40;0.20;;;;;;;20.68;66.70;100051.03;4982576;28;20939;-50
2022/06/21 09:00:03;;;;;;;0.40;0.20;;;;;;;20.99;65.42;100060.41;4982270;28;20446;-50
2022/06/21 09:02:43;;;;;;;0.40;0.20;;;;;;;20.74;64.21;100065.94;4986448;28;20442;-51
2022/06/21 09:05:35;;;;;;;0.40;0.20;;;;;;;20.89;63.98;100056.69;4989391;28;20470;-49
2022/06/21 09:08:22;;;;;;;0.40;0.20;;;;;;;21.01;63.20;100050.34;4988672;28;20489;-49
2022/06/21 09:10:56;;;;;;;0.40;0.20;;;;;;;21.71;62.18;100052.19;5001453;28;20469;-50
2022/06/21 09:13:25;;;;;;;0.40;0.20;;;;;;;21.63;61.54;100044.66;4983440;28;21013;-50
2022/06/21 09:16:22;;;;;;;0.40;0.20;;;;;;;21.68;61.05;100039.78;4982723;28;20517;-49
2022/06/21 09:19:16;;;;;;;0.40;0.20;;;;;;;21.82;61.02;100036.84;4981949;28;20541;-50
2022/06/21 09:22:21;;;;;;;0.40;0.20;;;;;;;21.74;61.53;100035.72;4975945;28;20497;-49
2022/06/21 09:24:59;;;;;;;0.40;0.20;;;;;;;21.76;60.70;100021.06;4987909;28;20988;-49
2022/06/21 09:27:33;;;;;;;0.40;0.20;;;;;;;21.63;61.46;100030.28;4988148;28;20903;-50
2022/06/21 09:30:15;;;;;;;0.40;0.20;;;;;;;21.59;60.61;100025.13;4983772;28;20445;-50
2022/06/21 09:33:07;;;;;;;0.40;0.20;;;;;;;22.15;59.00;100014.34;4981919;28;20500;-50
2022/06/21 09:36:02;;;;;;;0.40;0.20;;;;;;;21.93;59.56;100026.97;4981634;28;20467;-49
2022/06/21 09:38:34;;;;;;;0.40;0.30;;;;;;;22.04;58.53;100014.31;4983474;28;20465;-50
2022/06/21 09:41:12;;;;;;;0.40;0.20;;;;;;;22.37;57.64;100018.03;4988288;28;20470;-50
2022/06/21 09:43:51;;;;;;;0.40;0.20;;;;;;;22.63;57.85;100014.03;4987765;28;20453;-49
2022/06/21 09:46:56;;;;;;;0.40;0.20;;;;;;;22.79;57.08;100010.03;4984579;28;20493;-50
2022/06/21 09:49:41;;;;;;;0.40;0.20;;;;;;;22.71;57.00;100013.38;4949906;28;20450;-50
2022/06/21 09:52:23;;;;;;;0.40;0.20;;;;;;;22.23;56.88;100011.03;4979716;28;20588;-50
2022/06/21 09:55:12;;;;;;;0.40;0.20;;;;;;;22.79;55.25;100013.59;4981556;28;20505;-49
2022/06/21 09:58:05;;;;;;;0.40;0.20;;;;;;;22.38;54.98;100012.47;4974709;28;20462;-50
2022/06/21 10:00:34;;;;;;;0.40;0.20;;;;;;;22.92;54.49;100014.31;4987552;28;20482;-50
2022/06/21 10:03:34;;;;;;;0.40;0.20;;;;;;;23.14;53.35;100005.22;4987953;28;20450;-50
2022/06/21 10:06:06;;;;;;;0.40;0.20;;;;;;;23.19;54.25;100004.84;4986366;28;20524;-50
2022/06/21 10:09:30;;;;;;;0.40;0.30;;;;;;;23.76;53.76;100003.50;4980984;28;20454;-49
2022/06/21 10:12:30;;;;;;;0.40;0.20;;;;;;;23.69;51.84;99995.03;4949607;28;20474;-50
2022/06/21 10:15:11;;;;;;;0.40;0.20;;;;;;;22.62;53.61;100001.47;4978666;28;20553;-49
2022/06/21 10:18:12;;;;;;;0.40;0.20;;;;;;;23.17;52.95;100002.25;4987978;28;20452;-51
2022/06/21 10:21:00;;;;;;;0.40;0.20;;;;;;;23.18;53.88;99998.56;4974488;28;20509;-50
2022/06/21 10:23:44;;;;;;;0.40;0.20;;;;;;;23.24;51.21;99994.44;4974854;28;20454;-50
2022/06/21 10:26:30;;;;;;;0.40;0.20;;;;;;;23.41;50.77;99998.41;4987473;28;20547;-50
2022/06/21 10:29:05;;;;;;;0.40;0.20;;;;;;;23.85;50.44;99987.28;4986667;28;20789;-51
2022/06/21 10:31:37;;;;;;;0.40;0.20;;;;;;;23.66;49.67;99980.88;4974143;28;20947;-48
2022/06/21 10:34:35;;;;;;;0.40;0.20;;;;;;;23.51;51.51;99983.91;4987557;28;20477;-48
2022/06/21 10:37:01;;;;;;;0.40;0.20;;;;;;;23.28;52.69;99987.75;4986621;28;20523;-50
2022/06/21 10:40:00;;;;;;;0.40;0.20;;;;;;;23.18;52.00;99973.28;4980653;28;20825;-49
2022/06/21 10:43:04;;;;;;;0.40;0.20;;;;;;;23.43;51.47;99972.84;4980071;28;20872;-49
2022/06/21 10:45:49;;;;;;;0.40;0.20;;;;;;;24.33;50.04;99975.75;4979858;28;20444;-49
2022/06/21 10:48:22;;;;;;;1.60;1.50;;;;;;;24.68;49.99;99968.94;4982433;28;20522;-49
2022/06/21 10:51:17;;;;;;;0.40;0.20;;;;;;;24.33;50.45;99981.19;4986794;28;20488;-50
2022/06/21 10:53:44;;;;;;;0.43;0.20;;;;;;;23.93;50.88;99978.44;4976654;28;20956;-49
2022/06/21 10:59:08;;;;;;;0.40;0.20;;;;;;;24.52;49.94;99967.59;4979861;28;20950;-49
2022/06/21 11:01:47;;;;;;;0.40;0.23;;;;;;;25.32;49.11;99954.75;4980152;28;20454;-48
2022/06/21 11:04:29;;;;;;;0.40;0.23;;;;;;;24.96;48.43;99956.34;4984312;28;20529;-49
2022/06/21 11:07:22;;;;;;;0.47;0.30;;;;;;;25.21;49.07;99953.03;4986537;28;20519;-49
2022/06/21 11:10:03;;;;;;;0.40;0.27;;;;;;;25.35;48.01;99933.53;4990003;28;20500;-49
2022/06/21 11:12:53;;;;;;;0.50;0.30;;;;;;;24.77;49.92;99927.28;4990685;28;20457;-49
2022/06/21 11:15:50;;;;;;;0.40;0.23;;;;;;;24.82;49.96;99925.00;4973488;28;20466;-50
2022/06/21 11:18:38;;;;;;;0.43;0.20;;;;;;;25.48;47.74;99933.22;4986451;28;20450;-49
2022/06/21 11:21:06;;;;;;;0.50;0.30;;;;;;;25.81;47.65;99920.09;4986406;28;20428;-50
2022/06/21 11:23:41;;;;;;;0.40;0.20;;;;;;;25.38;47.04;99916.06;4981501;28;20461;-50
2022/06/21 11:26:26;;;;;;;0.40;0.20;;;;;;;25.61;47.88;99922.84;4979589;28;20477;-49
2022/06/21 11:29:43;;;;;;;0.40;0.20;;;;;;;24.85;48.66;99924.72;4979618;28;20524;-49
2022/06/21 11:32:09;;;;;;;0.40;0.20;;;;;;;24.77;47.72;99917.28;4971021;28;20456;-50
2022/06/21 11:34:52;;;;;;;0.50;0.30;;;;;;;24.63;48.38;99903.25;4982641;28;20995;-49
2022/06/21 11:37:41;;;;;;;0.50;0.30;;;;;;;25.05;46.84;99893.78;4986226;28;20465;-50
2022/06/21 11:40:20;;;;;;;0.40;0.20;;;;;;;24.88;48.06;99894.50;4984599;28;20449;-50
2022/06/21 11:42:56;;;;;;;0.40;0.30;;;;;;;24.55;48.26;99882.25;4979631;28;20428;-50
2022/06/21 11:45:49;;;;;;;0.40;0.30;;;;;;;24.64;47.91;99885.94;5006386;28;20524;-51
2022/06/21 11:48:39;;;;;;;0.47;0.30;;;;;;;24.93;46.30;99878.59;4985082;28;20497;-51
2022/06/21 11:51:09;;;;;;;0.40;0.20;;;;;;;25.52;46.71;99880.22;4969932;28;20876;-49
2022/06/21 11:53:53;;;;;;;0.40;0.20;;;;;;;24.49;48.06;99889.09;4990159;28;20457;-50
2022/06/21 11:56:49;;;;;;;0.40;0.30;;;;;;;25.45;45.96;99878.22;4987684;28;20509;-50
2022/06/21 11:59:32;;;;;;;0.40;0.20;;;;;;;25.02;47.11;99875.06;4976983;28;20875;-51
2022/06/21 12:02:11;;;;;;;0.40;0.20;;;;;;;25.29;46.50;99878.84;4989934;28;20509;-50
2022/06/21 12:04:48;;;;;;;0.40;0.23;;;;;;;25.46;45.83;99878.06;5003829;28;20537;-50
2022/06/21 12:07:26;;;;;;;0.63;0.63;;;;;;;25.65;44.90;99863.53;4976812;28;20912;-50
2022/06/21 12:10:15;;;;;;;0.40;0.30;;;;;;;25.88;44.48;99862.13;4994813;28;20506;-51
2022/06/21 12:12:51;;;;;;;0.50;0.20;;;;;;;25.66;44.92;99844.31;4990635;28;20451;-51
2022/06/21 12:15:26;;;;;;;0.43;0.30;;;;;;;25.49;45.53;99844.25;4976501;28;20473;-50
2022/06/21 12:17:57;;;;;;;0.40;0.30;;;;;;;25.13;45.73;99837.81;4989349;28;20423;-50
2022/06/21 12:20:32;;;;;;;0.40;0.20;;;;;;;25.60;45.94;99835.88;4985568;28;20445;-50
2022/06/21 12:23:06;;;;;;;0.40;0.20;;;;;;;25.44;44.75;99835.69;4982799;28;20477;-50